createdAt,value
2022-08-20T00:02:16.290Z,11.50
2022-08-20T00:09:51.595Z,9.90
2022-08-20T00:12:19.935Z,5.73
2022-08-20T00:14:48.276Z,6.37
2022-08-20T00:17:16.015Z,9.53
2022-08-20T00:19:43.791Z,7.57
2022-08-20T00:22:11.345Z,9.97
2022-08-20T00:24:38.635Z,5.37
2022-08-20T00:34:51.994Z,741.37
2022-08-20T00:37:19.585Z,1999.90
2022-08-20T00:39:48.118Z,1999.90
2022-08-20T00:42:15.824Z,1999.90
2022-08-20T00:44:46.513Z,1999.90
2022-08-20T00:47:14.723Z,1999.90
2022-08-20T00:49:45.094Z,1999.90
2022-08-20T01:00:29.605Z,1999.90
2022-08-20T01:02:58.903Z,1999.90
2022-08-20T01:05:29.494Z,1999.90
2022-08-20T01:07:58.574Z,1999.90
2022-08-20T01:10:30.097Z,1999.90
2022-08-20T01:12:59.932Z,1999.90
2022-08-20T01:15:32.054Z,1999.90
2022-08-20T01:18:03.784Z,1999.90
2022-08-20T01:25:47.053Z,1999.90
2022-08-20T01:28:18.703Z,64.27
2022-08-20T01:30:46.754Z,17.30
2022-08-20T01:33:14.765Z,3.07
2022-08-20T01:35:44.056Z,1999.90
2022-08-20T01:38:12.823Z,1999.90
2022-08-20T01:40:59.023Z,1999.90
2022-08-20T01:47:49.734Z,1999.90
2022-08-20T01:50:24.313Z,1999.90
2022-08-20T01:52:59.343Z,1999.90
2022-08-20T01:55:29.121Z,1999.90
2022-08-20T01:57:57.473Z,99.80
2022-08-20T02:00:25.341Z,1999.90
2022-08-20T02:02:55.264Z,195.17
2022-08-20T02:08:08.993Z,11.03
2022-08-20T02:10:36.943Z,68.30
2022-08-20T02:13:05.413Z,12.83
2022-08-20T02:15:37.128Z,9.53
2022-08-20T02:18:09.783Z,1999.90
2022-08-20T02:20:37.954Z,1999.90
2022-08-20T02:23:07.756Z,69.90
2022-08-20T02:25:39.703Z,755.80
2022-08-20T02:33:14.823Z,10.83
2022-08-20T02:35:47.174Z,10.30
2022-08-20T02:38:16.243Z,13.40
2022-08-20T02:40:46.123Z,10.53
2022-08-20T02:43:14.033Z,18.03
2022-08-20T02:45:43.730Z,11.87
2022-08-20T02:48:20.081Z,11.57
2022-08-20T02:55:52.861Z,12.57
2022-08-20T02:58:20.661Z,13.67
2022-08-20T03:00:48.674Z,14.73
2022-08-20T03:03:19.904Z,16.17
2022-08-20T03:05:47.036Z,13.83
2022-08-20T03:08:18.224Z,14.67
2022-08-20T03:10:50.324Z,15.03
2022-08-20T03:18:25.274Z,16.70
2022-08-20T03:20:52.894Z,14.03
2022-08-20T03:23:23.113Z,28.73
2022-08-20T03:25:53.026Z,16.33
2022-08-20T03:28:20.494Z,19.50
2022-08-20T03:30:48.473Z,18.57
2022-08-20T03:33:16.786Z,17.90
2022-08-20T03:40:50.835Z,18.70
2022-08-20T03:43:18.707Z,16.53
2022-08-20T03:45:47.756Z,19.67
2022-08-20T03:48:20.063Z,43.73
2022-08-20T03:50:49.665Z,21.47
2022-08-20T03:53:18.355Z,25.43
2022-08-20T03:55:59.261Z,20.33
2022-08-20T03:58:35.483Z,21.97
2022-08-20T04:06:05.464Z,19.97
2022-08-20T04:08:32.944Z,69.10
2022-08-20T04:11:01.463Z,18.70
2022-08-20T04:13:30.483Z,57.60
2022-08-20T04:15:58.997Z,261.17
2022-08-20T04:18:30.106Z,749.60
2022-08-20T04:20:57.654Z,28.40
2022-08-20T04:31:04.104Z,24.10
2022-08-20T04:33:33.863Z,19.53
2022-08-20T04:36:08.353Z,21.80
2022-08-20T04:38:48.509Z,18.30
2022-08-20T04:41:23.384Z,19.90
2022-08-20T04:43:52.683Z,22.47
2022-08-20T04:49:38.504Z,22.70
2022-08-20T04:52:06.865Z,23.37
2022-08-20T04:54:35.782Z,23.40
2022-08-20T04:57:03.461Z,27.00
2022-08-20T04:59:31.081Z,26.83
2022-08-20T05:01:58.903Z,26.60
2022-08-20T05:04:27.114Z,26.63
2022-08-20T05:06:55.424Z,29.37
2022-08-20T05:14:31.284Z,24.57
2022-08-20T05:16:58.444Z,26.70
2022-08-20T05:19:26.164Z,23.47
2022-08-20T05:21:53.779Z,24.27
2022-08-20T05:24:21.517Z,21.90
2022-08-20T05:26:49.054Z,20.47
2022-08-20T05:29:16.354Z,21.33
2022-08-20T05:34:24.714Z,21.90
2022-08-20T05:36:52.863Z,23.47
2022-08-20T05:39:23.664Z,22.93
2022-08-20T05:41:52.613Z,24.33
2022-08-20T05:44:23.016Z,23.87
2022-08-20T05:46:50.654Z,24.80
2022-08-20T05:49:20.802Z,22.43
2022-08-20T05:57:30.174Z,19.87
2022-08-20T06:00:01.104Z,21.27
2022-08-20T06:02:46.384Z,20.80
2022-08-20T06:05:14.234Z,20.37
2022-08-20T06:07:44.624Z,22.97
2022-08-20T06:10:13.204Z,23.30
2022-08-20T06:12:43.874Z,24.03
2022-08-20T06:20:15.481Z,20.10
2022-08-20T06:22:44.474Z,17.63
2022-08-20T06:25:15.014Z,17.80
2022-08-20T06:27:44.662Z,18.60
2022-08-20T06:30:15.617Z,13.53
2022-08-20T06:32:43.664Z,12.93
2022-08-20T06:35:12.225Z,12.97
2022-08-20T06:37:43.134Z,13.37
2022-08-20T06:45:18.362Z,14.40
2022-08-20T06:47:47.437Z,12.40
2022-08-20T06:50:22.288Z,12.20
2022-08-20T06:52:53.226Z,10.23
2022-08-20T06:55:22.377Z,11.23
2022-08-20T06:57:58.903Z,11.90
2022-08-20T07:00:31.044Z,11.30
2022-08-20T07:03:00.656Z,11.90
2022-08-20T07:10:38.314Z,12.03
2022-08-20T07:13:09.104Z,11.47
2022-08-20T07:15:36.803Z,11.17
2022-08-20T07:18:06.805Z,10.20
2022-08-20T07:20:36.664Z,10.17
2022-08-20T07:23:04.404Z,9.93
2022-08-20T07:25:33.243Z,9.70
2022-08-20T07:33:10.044Z,6.93
2022-08-20T07:35:37.785Z,7.93
2022-08-20T07:38:07.293Z,7.63
2022-08-20T07:40:37.060Z,5.53
2022-08-20T07:43:04.564Z,5.93
2022-08-20T07:45:32.093Z,5.57
2022-08-20T07:48:08.057Z,6.03
2022-08-20T07:55:42.044Z,6.97
2022-08-20T07:58:33.086Z,5.63
2022-08-20T08:01:01.528Z,5.33
2022-08-20T08:03:39.876Z,5.37
2022-08-20T08:06:28.321Z,8.90
2022-08-20T08:09:02.152Z,7.43
2022-08-20T08:16:35.976Z,5.67
2022-08-20T08:19:07.060Z,6.43
2022-08-20T08:21:35.304Z,7.17
2022-08-20T08:24:02.654Z,8.37
2022-08-20T08:26:33.433Z,7.33
2022-08-20T08:29:02.204Z,6.30
2022-08-20T08:31:30.895Z,6.63
2022-08-20T08:39:08.384Z,5.13
2022-08-20T08:41:38.274Z,5.03
2022-08-20T08:44:10.754Z,6.97
2022-08-20T08:46:42.094Z,6.07
2022-08-20T08:49:14.433Z,6.10
2022-08-20T08:51:46.095Z,5.80
2022-08-20T08:54:16.915Z,5.83
2022-08-20T09:04:32.386Z,6.70
2022-08-20T09:07:01.764Z,9.07
2022-08-20T09:09:32.284Z,4.63
2022-08-20T09:12:05.934Z,3.83
2022-08-20T09:14:33.956Z,3.80
2022-08-20T09:17:01.744Z,4.40
2022-08-20T09:19:31.517Z,3.00
2022-08-20T09:27:09.856Z,5.57
2022-08-20T09:29:37.303Z,5.07
2022-08-20T09:32:09.268Z,5.60
2022-08-20T09:34:41.432Z,7.23
2022-08-20T09:37:09.522Z,6.87
2022-08-20T09:39:38.559Z,7.27
2022-08-20T09:42:13.474Z,9.60
2022-08-20T09:49:46.723Z,6.07
2022-08-20T09:52:23.833Z,5.30
2022-08-20T09:54:52.406Z,4.83
2022-08-20T09:57:19.854Z,4.40
2022-08-20T09:59:53.734Z,5.20
2022-08-20T10:02:21.113Z,5.90
2022-08-20T10:04:51.807Z,4.30
2022-08-20T10:12:26.395Z,3.70
2022-08-20T10:14:55.174Z,4.67
2022-08-20T10:17:23.396Z,4.47
2022-08-20T10:19:51.724Z,3.40
2022-08-20T10:22:20.523Z,2.90
2022-08-20T10:24:48.795Z,3.20
2022-08-20T10:27:17.464Z,3.33
2022-08-20T10:29:47.412Z,3.17
2022-08-20T10:37:24.029Z,1.87
2022-08-20T10:39:53.265Z,2.50
2022-08-20T10:42:22.066Z,6.73
2022-08-20T10:44:50.537Z,2.23
2022-08-20T10:47:21.779Z,3.03
2022-08-20T10:49:50.126Z,3.60
2022-08-20T10:52:18.449Z,3.40
2022-08-20T11:00:53.216Z,3.00
2022-08-20T11:03:21.717Z,3.43
2022-08-20T11:05:49.389Z,4.83
2022-08-20T11:08:25.116Z,2.03
2022-08-20T11:11:02.216Z,2.03
2022-08-20T11:13:30.027Z,4.10
2022-08-20T11:15:59.408Z,2.90
2022-08-20T11:21:11.760Z,2.77
2022-08-20T11:23:41.269Z,2.80
2022-08-20T11:26:09.638Z,3.13
2022-08-20T11:28:37.535Z,2.70
2022-08-20T11:31:06.657Z,2.80
2022-08-20T11:33:35.247Z,2.90
2022-08-20T11:36:03.087Z,2.53
2022-08-20T11:38:46.852Z,2.83
2022-08-20T11:46:24.300Z,1.93
2022-08-20T11:48:54.458Z,1.43
2022-08-20T11:51:21.928Z,1.50
2022-08-20T11:53:49.784Z,1.67
2022-08-20T11:56:20.007Z,1.50
2022-08-20T11:58:48.209Z,1.57
2022-08-20T12:01:18.278Z,1.80
2022-08-20T12:06:48.268Z,1.63
2022-08-20T12:09:16.949Z,2.73
2022-08-20T12:11:47.297Z,1.50
2022-08-20T12:14:15.575Z,2.03
2022-08-20T12:16:42.889Z,3.83
2022-08-20T12:19:11.256Z,1.80
2022-08-20T12:21:39.019Z,2.33
2022-08-20T12:29:41.727Z,2.90
2022-08-20T12:32:11.017Z,1.77
2022-08-20T12:34:42.058Z,2.00
2022-08-20T12:37:15.735Z,1.77
2022-08-20T12:39:51.518Z,1.97
2022-08-20T12:42:20.182Z,1.77
2022-08-20T12:44:55.058Z,2.67
2022-08-20T12:47:32.657Z,4.30
2022-08-20T12:52:59.927Z,1.60
2022-08-20T12:55:29.128Z,1.60
2022-08-20T12:57:59.858Z,3.23
2022-08-20T13:00:33.148Z,3.10
2022-08-20T13:03:04.319Z,1.30
2022-08-20T13:05:33.506Z,3.90
2022-08-20T13:08:07.338Z,1.40
2022-08-20T13:15:43.318Z,1.50
2022-08-20T13:18:11.137Z,2.10
2022-08-20T13:20:38.869Z,2.87
2022-08-20T13:23:06.558Z,2.47
2022-08-20T13:25:34.749Z,1.70
2022-08-20T13:28:04.532Z,1.50
2022-08-20T13:30:37.138Z,2.13
2022-08-20T13:38:09.018Z,1.87
2022-08-20T13:40:36.818Z,2.50
2022-08-20T13:43:07.052Z,1.73
2022-08-20T13:45:36.329Z,1.93
2022-08-20T13:48:05.357Z,2.13
2022-08-20T13:50:35.570Z,1.60
2022-08-20T13:53:03.258Z,3.93
2022-08-20T14:00:36.528Z,1.60
2022-08-20T14:03:05.973Z,2.77
2022-08-20T14:05:35.517Z,2.33
2022-08-20T14:08:09.091Z,2.23
2022-08-20T14:10:37.586Z,1.30
2022-08-20T14:13:16.238Z,2.10
2022-08-20T14:15:46.758Z,2.73
2022-08-20T14:23:20.838Z,5.90
2022-08-20T14:25:50.777Z,2.43
2022-08-20T14:28:20.045Z,2.87
2022-08-20T14:30:52.809Z,2.00
2022-08-20T14:33:23.792Z,2.60
2022-08-20T14:35:55.276Z,2.30
2022-08-20T14:38:24.216Z,2.23
2022-08-20T14:46:14.304Z,2.90
2022-08-20T14:48:42.145Z,2.20
2022-08-20T14:51:10.111Z,2.90
2022-08-20T14:53:40.451Z,2.00
2022-08-20T14:56:10.074Z,3.17
2022-08-20T14:58:37.724Z,3.37
2022-08-20T15:01:05.957Z,2.13
2022-08-20T15:08:40.067Z,3.07
2022-08-20T15:11:08.495Z,2.70
2022-08-20T15:13:36.695Z,2.63
2022-08-20T15:16:05.626Z,2.60
2022-08-20T15:18:34.336Z,4.83
2022-08-20T15:21:02.436Z,5.97
2022-08-20T15:23:30.995Z,5.90
2022-08-20T15:26:01.564Z,2.37
2022-08-20T15:33:39.475Z,4.37
2022-08-20T15:36:10.165Z,3.40
2022-08-20T15:38:38.284Z,3.93
2022-08-20T15:41:06.964Z,4.10
2022-08-20T15:43:35.595Z,5.73
2022-08-20T15:46:06.074Z,4.90
2022-08-20T15:48:39.420Z,5.40
2022-08-20T15:56:33.195Z,4.37
2022-08-20T15:59:14.164Z,3.70
2022-08-20T16:01:47.665Z,3.70
2022-08-20T16:04:38.554Z,4.37
2022-08-20T16:07:13.324Z,3.97
2022-08-20T16:09:55.432Z,4.47
2022-08-20T16:12:33.734Z,4.50
2022-08-20T16:20:08.115Z,3.10
2022-08-20T16:22:39.704Z,2.50
2022-08-20T16:25:09.726Z,3.07
2022-08-20T16:27:50.748Z,3.53
2022-08-20T16:30:24.104Z,2.60
2022-08-20T16:33:00.472Z,2.63
2022-08-20T16:42:34.973Z,2.77
2022-08-20T16:45:06.784Z,3.77
2022-08-20T16:47:37.384Z,4.83
2022-08-20T16:50:10.861Z,3.47
2022-08-20T16:52:42.021Z,5.47
2022-08-20T16:55:12.101Z,4.10
2022-08-20T16:57:40.383Z,3.40
2022-08-20T17:05:13.706Z,3.33
2022-08-20T17:07:46.275Z,5.10
2022-08-20T17:10:20.220Z,4.20
2022-08-20T17:12:54.477Z,4.03
2022-08-20T17:15:30.241Z,6.93
2022-08-20T17:17:58.103Z,4.90
2022-08-20T17:20:29.117Z,6.57
2022-08-20T17:25:38.192Z,4.80
2022-08-20T17:28:15.952Z,4.30
2022-08-20T17:30:43.871Z,4.87
2022-08-20T17:33:26.183Z,4.73
2022-08-20T17:35:58.351Z,7.13
2022-08-20T17:38:35.481Z,7.53
2022-08-20T17:41:15.258Z,6.77
2022-08-20T17:46:36.382Z,5.73
2022-08-20T17:49:10.171Z,7.20
2022-08-20T17:51:43.541Z,6.77
2022-08-20T17:54:16.251Z,6.73
2022-08-20T17:56:45.181Z,7.70
2022-08-20T17:59:24.206Z,6.23
2022-08-20T18:02:10.755Z,8.23
2022-08-20T18:12:40.102Z,8.30
2022-08-20T18:15:14.672Z,11.73
2022-08-20T18:18:18.582Z,6.67
2022-08-20T18:21:16.031Z,6.77
2022-08-20T18:23:53.261Z,10.43
2022-08-20T18:26:29.363Z,6.13
2022-08-20T18:29:08.541Z,6.30
2022-08-20T18:36:43.154Z,6.77
2022-08-20T18:39:24.860Z,6.37
2022-08-20T18:42:00.820Z,8.77
2022-08-20T18:44:34.641Z,7.77
2022-08-20T18:47:07.479Z,7.27
2022-08-20T18:49:38.101Z,12.97
2022-08-20T18:52:14.591Z,10.07
2022-08-20T19:00:03.784Z,7.43
2022-08-20T19:02:33.701Z,10.40
2022-08-20T19:05:07.271Z,8.87
2022-08-20T19:07:48.238Z,9.13
2022-08-20T19:10:48.570Z,12.93
2022-08-20T19:13:57.540Z,8.83
2022-08-20T19:21:30.623Z,10.40
2022-08-20T19:24:04.624Z,7.67
2022-08-20T19:26:43.124Z,8.60
2022-08-20T19:29:13.937Z,7.73
2022-08-20T19:31:44.615Z,9.13
2022-08-20T19:34:19.982Z,14.07
2022-08-20T19:36:58.264Z,7.70
2022-08-20T19:44:39.511Z,7.53
2022-08-20T19:47:19.846Z,9.50
2022-08-20T19:49:58.954Z,7.93
2022-08-20T19:52:39.612Z,7.23
2022-08-20T19:55:21.566Z,7.40
2022-08-20T19:57:59.110Z,11.50
2022-08-20T20:03:13.421Z,7.30
2022-08-20T20:05:52.553Z,7.53
2022-08-20T20:08:26.712Z,7.77
2022-08-20T20:11:02.984Z,11.27
2022-08-20T20:13:39.560Z,9.67
2022-08-20T20:16:10.024Z,10.83
2022-08-20T20:18:45.314Z,6.70
2022-08-20T20:26:21.922Z,13.70
2022-08-20T20:28:54.823Z,8.23
2022-08-20T20:31:31.421Z,8.77
2022-08-20T20:34:18.533Z,8.00
2022-08-20T20:37:10.863Z,8.60
2022-08-20T20:39:44.950Z,11.93
2022-08-20T20:48:52.013Z,7.47
2022-08-20T20:51:26.983Z,11.07
2022-08-20T20:53:59.830Z,18.87
2022-08-20T20:56:34.743Z,8.87
2022-08-20T20:59:06.852Z,8.20
2022-08-20T21:01:50.256Z,15.97
2022-08-20T21:04:21.482Z,11.03
2022-08-20T21:11:56.771Z,13.57
2022-08-20T21:14:24.841Z,8.70
2022-08-20T21:17:03.942Z,8.80
2022-08-20T21:19:32.151Z,10.93
2022-08-20T21:22:00.524Z,11.87
2022-08-20T21:24:29.821Z,10.80
2022-08-20T21:27:01.032Z,8.20
2022-08-20T21:34:37.381Z,7.60
2022-08-20T21:37:06.908Z,12.23
2022-08-20T21:39:35.691Z,8.93
2022-08-20T21:42:21.033Z,11.33
2022-08-20T21:44:55.101Z,11.83
2022-08-20T21:47:23.592Z,12.47
2022-08-20T21:49:52.752Z,6.80
2022-08-20T21:55:39.253Z,8.30
2022-08-20T21:58:09.601Z,8.43
2022-08-20T22:00:56.616Z,9.50
2022-08-20T22:03:32.635Z,17.00
2022-08-20T22:06:01.474Z,11.57
2022-08-20T22:08:29.280Z,9.03
2022-08-20T22:10:59.662Z,13.70
2022-08-20T22:18:33.022Z,14.10
2022-08-20T22:21:01.014Z,14.13
2022-08-20T22:23:30.002Z,10.37
2022-08-20T22:25:58.180Z,10.50
2022-08-20T22:28:26.101Z,9.97
2022-08-20T22:30:54.683Z,6.47
2022-08-20T22:33:23.965Z,11.03
2022-08-20T22:35:55.492Z,10.80
2022-08-20T22:43:28.201Z,10.60
2022-08-20T22:46:00.341Z,9.17
2022-08-20T22:48:29.681Z,11.83
2022-08-20T22:50:58.662Z,13.00
2022-08-20T22:53:27.421Z,10.80
2022-08-20T22:55:55.481Z,13.53
2022-08-20T22:58:31.289Z,9.40
2022-08-20T23:09:01.749Z,7.30
2022-08-20T23:11:30.659Z,11.40
2022-08-20T23:13:58.864Z,7.83
2022-08-20T23:16:26.542Z,15.77
2022-08-20T23:18:56.859Z,10.33
2022-08-20T23:21:24.771Z,11.43
2022-08-20T23:23:55.061Z,9.43
2022-08-20T23:31:28.931Z,10.40
2022-08-20T23:33:57.301Z,10.13
2022-08-20T23:36:26.152Z,12.23
2022-08-20T23:38:54.112Z,11.57
2022-08-20T23:41:23.950Z,8.93
2022-08-20T23:43:51.520Z,11.80
2022-08-20T23:46:21.401Z,9.33
2022-08-20T23:51:42.391Z,9.37
2022-08-20T23:54:10.121Z,13.17
2022-08-20T23:56:38.990Z,11.33
2022-08-20T23:59:07.461Z,13.93
